createdAt,value
2022-08-03T00:00:32.524Z,51.20
2022-08-03T00:02:59.872Z,52.10
2022-08-03T00:05:27.224Z,52.00
2022-08-03T00:07:55.152Z,51.90
2022-08-03T00:10:23.479Z,51.90
2022-08-03T00:12:51.081Z,51.90
2022-08-03T00:15:18.628Z,52.00
2022-08-03T00:17:52.618Z,51.70
2022-08-03T00:20:22.569Z,52.30
2022-08-03T00:22:51.478Z,52.50
2022-08-03T00:25:19.416Z,52.10
2022-08-03T00:27:48.264Z,52.00
2022-08-03T00:30:17.003Z,52.10
2022-08-03T00:32:45.583Z,52.20
2022-08-03T00:35:25.134Z,52.60
2022-08-03T00:38:00.757Z,52.40
2022-08-03T00:40:28.575Z,52.50
2022-08-03T00:43:04.584Z,52.70
2022-08-03T00:45:42.529Z,52.80
2022-08-03T00:48:19.786Z,53.20
2022-08-03T00:51:01.600Z,53.20
2022-08-03T00:53:29.443Z,53.30
2022-08-03T00:55:57.036Z,53.20
2022-08-03T00:58:24.502Z,53.40
2022-08-03T01:00:52.029Z,53.50
2022-08-03T01:03:19.392Z,53.40
2022-08-03T01:06:04.795Z,53.50
2022-08-03T01:09:07.989Z,53.40
2022-08-03T01:12:11.801Z,53.60
2022-08-03T01:15:31.712Z,53.80
2022-08-03T01:19:12.813Z,54.30
2022-08-03T01:22:14.682Z,53.70
2022-08-03T01:25:26.968Z,53.50
2022-08-03T01:29:05.931Z,53.80
2022-08-03T01:32:54.594Z,54.20
2022-08-03T01:35:17.117Z,54.10
2022-08-03T01:38:07.118Z,54.30
2022-08-03T01:40:36.741Z,53.80
2022-08-03T01:43:08.780Z,53.50
2022-08-03T01:45:37.731Z,53.50
2022-08-03T01:48:07.590Z,53.70
2022-08-03T01:50:35.452Z,53.60
2022-08-03T01:53:03.602Z,53.70
2022-08-03T01:55:33.287Z,54.20
2022-08-03T01:58:06.823Z,54.20
2022-08-03T02:00:37.884Z,54.40
2022-08-03T02:03:07.850Z,54.30
2022-08-03T02:05:36.411Z,54.30
2022-08-03T02:08:09.199Z,54.50
2022-08-03T02:10:37.705Z,55.00
2022-08-03T02:13:09.290Z,54.70
2022-08-03T02:15:39.247Z,54.80
2022-08-03T02:18:11.002Z,54.80
2022-08-03T02:20:44.244Z,54.90
2022-08-03T02:23:11.963Z,54.90
2022-08-03T02:25:48.207Z,54.90
2022-08-03T02:28:24.833Z,55.00
2022-08-03T02:30:56.006Z,55.30
2022-08-03T02:33:42.460Z,55.10
2022-08-03T02:36:14.505Z,55.40
2022-08-03T02:38:45.468Z,55.20
2022-08-03T02:41:21.247Z,55.40
2022-08-03T02:44:06.391Z,55.60
2022-08-03T02:46:44.540Z,55.80
2022-08-03T02:49:40.552Z,56.00
2022-08-03T02:52:11.355Z,56.10
2022-08-03T02:54:46.646Z,56.10
2022-08-03T02:57:15.262Z,56.60
2022-08-03T02:59:44.221Z,56.40
2022-08-03T03:02:12.633Z,56.40
2022-08-03T03:04:56.198Z,56.70
2022-08-03T03:07:29.454Z,56.40
2022-08-03T03:10:03.227Z,56.40
2022-08-03T03:12:34.306Z,56.60
2022-08-03T03:15:01.629Z,57.00
2022-08-03T03:17:31.055Z,56.80
2022-08-03T03:19:59.249Z,56.50
2022-08-03T03:22:28.162Z,56.90
2022-08-03T03:24:56.020Z,57.20
2022-08-03T03:27:24.751Z,57.10
2022-08-03T03:29:55.016Z,57.20
2022-08-03T03:32:22.564Z,57.00
2022-08-03T03:34:50.505Z,57.20
2022-08-03T03:37:18.478Z,57.40
2022-08-03T03:39:45.812Z,57.50
2022-08-03T03:42:13.787Z,57.60
2022-08-03T03:44:41.586Z,57.60
2022-08-03T03:47:08.982Z,57.80
2022-08-03T03:49:37.330Z,57.90
2022-08-03T03:52:05.178Z,58.10
2022-08-03T03:54:45.639Z,58.00
2022-08-03T03:57:13.920Z,58.00
2022-08-03T03:59:42.592Z,57.90
2022-08-03T04:02:12.532Z,58.10
2022-08-03T04:04:58.823Z,58.20
2022-08-03T04:07:46.874Z,58.40
2022-08-03T04:10:56.592Z,58.40
2022-08-03T04:13:25.410Z,58.40
2022-08-03T04:15:54.439Z,58.60
2022-08-03T04:18:22.713Z,58.50
2022-08-03T04:20:51.985Z,58.60
2022-08-03T04:23:25.156Z,58.70
2022-08-03T04:25:55.695Z,59.10
2022-08-03T04:28:31.426Z,59.00
2022-08-03T04:31:01.616Z,59.00
2022-08-03T04:33:33.443Z,59.10
2022-08-03T04:36:09.290Z,59.30
2022-08-03T04:39:00.845Z,59.50
2022-08-03T04:41:30.440Z,59.50
2022-08-03T04:44:00.779Z,59.60
2022-08-03T04:46:35.732Z,59.60
2022-08-03T04:49:03.265Z,59.90
2022-08-03T04:51:31.523Z,59.40
2022-08-03T04:53:59.530Z,59.90
2022-08-03T04:56:26.988Z,59.60
2022-08-03T04:58:56.097Z,59.60
2022-08-03T05:01:23.518Z,60.00
2022-08-03T05:03:51.666Z,60.20
2022-08-03T05:06:18.985Z,60.30
2022-08-03T05:08:50.883Z,60.10
2022-08-03T05:11:18.862Z,60.00
2022-08-03T05:13:46.900Z,59.70
2022-08-03T05:16:15.244Z,60.20
2022-08-03T05:18:44.165Z,60.00
2022-08-03T05:21:16.929Z,59.70
2022-08-03T05:23:45.348Z,59.80
2022-08-03T05:26:12.908Z,59.60
2022-08-03T05:28:40.669Z,59.80
2022-08-03T05:31:19.847Z,59.80
2022-08-03T05:33:48.911Z,59.80
2022-08-03T05:36:16.471Z,59.80
2022-08-03T05:38:43.782Z,59.70
2022-08-03T05:41:21.625Z,59.40
2022-08-03T05:43:55.356Z,59.40
2022-08-03T05:46:23.887Z,59.10
2022-08-03T05:48:51.484Z,59.20
2022-08-03T05:51:19.112Z,59.40
2022-08-03T05:53:46.731Z,59.40
2022-08-03T05:56:16.220Z,59.30
2022-08-03T05:58:47.473Z,59.20
2022-08-03T06:01:21.812Z,59.10
2022-08-03T06:03:51.065Z,59.10
2022-08-03T06:06:18.855Z,59.10
2022-08-03T06:08:46.948Z,58.80
2022-08-03T06:11:15.253Z,58.70
2022-08-03T06:13:43.881Z,58.60
2022-08-03T06:16:11.531Z,58.60
2022-08-03T06:18:40.447Z,58.80
2022-08-03T06:21:15.562Z,58.90
2022-08-03T06:23:54.618Z,58.70
2022-08-03T06:26:26.979Z,58.80
2022-08-03T06:28:55.439Z,58.70
2022-08-03T06:31:33.120Z,58.70
2022-08-03T06:34:34.351Z,58.50
2022-08-03T06:36:58.580Z,58.50
2022-08-03T06:39:29.630Z,58.60
2022-08-03T06:41:57.968Z,58.50
2022-08-03T06:44:25.300Z,57.90
2022-08-03T06:46:53.842Z,57.70
2022-08-03T06:49:24.602Z,58.10
2022-08-03T06:52:05.545Z,57.50
2022-08-03T06:54:34.506Z,56.70
2022-08-03T06:57:02.712Z,56.90
2022-08-03T07:00:09.847Z,57.20
2022-08-03T07:02:21.091Z,57.20
2022-08-03T07:04:49.628Z,57.00
2022-08-03T07:07:17.812Z,57.10
2022-08-03T07:09:56.434Z,56.90
2022-08-03T07:12:26.364Z,56.70
2022-08-03T07:14:59.771Z,57.00
2022-08-03T07:17:30.898Z,56.50
2022-08-03T07:19:58.914Z,57.20
2022-08-03T07:22:26.803Z,56.00
2022-08-03T07:24:54.427Z,56.30
2022-08-03T07:27:21.915Z,56.40
2022-08-03T07:29:49.366Z,56.40
2022-08-03T07:32:16.924Z,56.00
2022-08-03T07:34:44.717Z,56.00
2022-08-03T07:37:12.037Z,56.10
2022-08-03T07:39:39.349Z,55.80
2022-08-03T07:42:07.037Z,55.60
2022-08-03T07:44:34.593Z,55.50
2022-08-03T07:47:03.451Z,55.50
2022-08-03T07:49:31.491Z,55.70
2022-08-03T07:52:17.776Z,55.50
2022-08-03T07:54:45.518Z,55.00
2022-08-03T07:57:13.018Z,54.80
2022-08-03T07:59:57.190Z,54.80
2022-08-03T08:02:29.247Z,55.20
2022-08-03T08:04:56.622Z,55.50
2022-08-03T08:07:25.246Z,54.70
2022-08-03T08:09:52.835Z,54.70
2022-08-03T08:12:20.419Z,55.40
2022-08-03T08:14:48.118Z,55.20
2022-08-03T08:17:15.543Z,54.90
2022-08-03T08:19:45.970Z,54.80
2022-08-03T08:22:30.231Z,54.90
2022-08-03T08:24:59.779Z,55.20
2022-08-03T08:28:30.318Z,54.90
2022-08-03T08:30:21.881Z,55.00
2022-08-03T08:32:51.516Z,54.60
2022-08-03T08:35:19.593Z,54.60
2022-08-03T08:37:51.192Z,55.00
2022-08-03T08:40:22.947Z,54.60
2022-08-03T08:42:58.571Z,54.70
2022-08-03T08:45:28.038Z,54.10
2022-08-03T08:48:01.085Z,53.70
2022-08-03T08:50:31.901Z,53.90
2022-08-03T08:53:03.835Z,54.00
2022-08-03T08:55:58.749Z,53.70
2022-08-03T08:58:23.408Z,53.40
2022-08-03T09:00:51.704Z,53.40
2022-08-03T09:03:22.512Z,52.60
2022-08-03T09:06:00.896Z,52.80
2022-08-03T09:08:34.433Z,52.70
2022-08-03T09:11:01.898Z,52.20
2022-08-03T09:13:30.443Z,52.30
2022-08-03T09:16:21.404Z,52.10
2022-08-03T09:18:54.540Z,52.30
2022-08-03T09:21:33.637Z,52.30
2022-08-03T09:24:08.456Z,51.90
2022-08-03T09:26:49.457Z,51.50
2022-08-03T09:29:22.234Z,51.10
2022-08-03T09:31:49.572Z,51.00
2022-08-03T09:34:18.451Z,50.10
2022-08-03T09:36:52.317Z,49.60
2022-08-03T09:39:40.626Z,49.60
2022-08-03T09:42:23.731Z,49.90
2022-08-03T09:44:53.089Z,49.40
2022-08-03T09:47:37.435Z,49.40
2022-08-03T09:50:12.998Z,49.50
2022-08-03T09:52:50.057Z,48.80
2022-08-03T09:56:33.292Z,48.70
2022-08-03T09:58:14.305Z,48.50
2022-08-03T10:01:06.351Z,47.90
2022-08-03T10:04:03.027Z,47.30
2022-08-03T10:06:29.061Z,47.70
2022-08-03T10:09:11.242Z,47.50
2022-08-03T10:11:42.445Z,46.60
2022-08-03T10:14:23.414Z,46.20
2022-08-03T10:16:50.827Z,46.20
2022-08-03T10:19:18.353Z,46.40
2022-08-03T10:21:56.910Z,46.60
2022-08-03T10:24:29.486Z,46.10
2022-08-03T10:27:08.233Z,46.70
2022-08-03T10:29:42.868Z,47.30
2022-08-03T10:32:32.476Z,45.30
2022-08-03T10:35:21.063Z,46.00
2022-08-03T10:38:09.065Z,45.00
2022-08-03T10:40:57.166Z,44.80
2022-08-03T10:43:59.279Z,44.30
2022-08-03T10:46:27.648Z,43.30
2022-08-03T10:48:56.765Z,43.90
2022-08-03T10:51:26.506Z,43.20
2022-08-03T10:53:55.238Z,43.10
2022-08-03T10:56:54.401Z,42.40
2022-08-03T10:59:46.881Z,42.10
2022-08-03T11:02:15.730Z,40.60
2022-08-03T11:04:45.202Z,40.90
2022-08-03T11:07:26.327Z,40.40
2022-08-03T11:09:56.566Z,41.00
2022-08-03T11:12:31.452Z,40.70
2022-08-03T11:15:09.388Z,40.20
2022-08-03T11:17:46.646Z,40.60
2022-08-03T11:20:53.730Z,39.20
2022-08-03T11:24:03.421Z,38.30
2022-08-03T11:26:34.687Z,37.50
2022-08-03T11:29:30.386Z,37.90
2022-08-03T11:31:58.137Z,37.40
2022-08-03T11:34:26.002Z,37.80
2022-08-03T11:37:30.135Z,37.20
2022-08-03T11:40:02.417Z,36.30
2022-08-03T11:42:36.544Z,35.20
2022-08-03T11:45:08.986Z,35.20
2022-08-03T11:47:50.736Z,34.90
2022-08-03T11:50:20.069Z,35.90
2022-08-03T11:52:49.472Z,35.30
2022-08-03T11:55:22.090Z,33.90
2022-08-03T11:59:17.274Z,33.40
2022-08-03T12:00:38.590Z,33.20
2022-08-03T12:03:12.652Z,34.10
2022-08-03T12:05:53.629Z,33.40
2022-08-03T12:08:28.046Z,32.80
2022-08-03T12:11:00.080Z,31.90
2022-08-03T12:14:44.636Z,31.80
2022-08-03T12:16:28.826Z,31.90
2022-08-03T12:19:09.328Z,32.60
2022-08-03T12:21:57.373Z,33.40
2022-08-03T12:24:29.534Z,32.10
2022-08-03T12:27:00.076Z,32.90
2022-08-03T12:29:28.030Z,32.40
2022-08-03T12:31:55.887Z,32.30
2022-08-03T12:34:24.006Z,32.30
2022-08-03T12:36:56.748Z,32.60
2022-08-03T12:39:30.853Z,31.90
2022-08-03T12:41:59.379Z,32.30
2022-08-03T12:44:36.702Z,33.00
2022-08-03T12:47:07.630Z,35.10
2022-08-03T12:49:54.030Z,32.60
2022-08-03T12:52:23.262Z,31.10
2022-08-03T12:55:01.401Z,30.90
2022-08-03T12:57:42.895Z,30.70
2022-08-03T13:00:28.651Z,30.60
2022-08-03T13:05:57.685Z,30.10
2022-08-03T13:08:25.956Z,30.00
2022-08-03T13:10:53.988Z,30.00
2022-08-03T13:13:39.731Z,29.60
2022-08-03T13:16:07.065Z,30.10
2022-08-03T13:18:34.447Z,30.00
2022-08-03T13:21:02.316Z,29.20
2022-08-03T13:23:29.885Z,29.60
2022-08-03T13:25:57.261Z,30.00
2022-08-03T13:28:24.660Z,29.30
2022-08-03T13:30:54.174Z,29.90
2022-08-03T13:33:21.662Z,29.60
2022-08-03T13:35:48.988Z,30.00
2022-08-03T13:38:17.264Z,29.30
2022-08-03T13:40:44.760Z,29.40
2022-08-03T13:43:13.603Z,29.60
2022-08-03T13:45:42.190Z,28.80
2022-08-03T13:48:10.925Z,28.60
2022-08-03T13:50:42.823Z,29.20
2022-08-03T13:53:10.575Z,28.60
2022-08-03T13:55:38.006Z,29.20
2022-08-03T13:58:07.957Z,28.40
2022-08-03T14:00:35.551Z,28.50
2022-08-03T14:03:13.734Z,29.10
2022-08-03T14:05:43.847Z,28.60
2022-08-03T14:08:13.638Z,28.70
2022-08-03T14:10:44.947Z,28.60
2022-08-03T14:13:17.707Z,29.00
2022-08-03T14:15:49.842Z,28.80
2022-08-03T14:18:28.925Z,29.10
2022-08-03T14:21:06.636Z,28.40
2022-08-03T14:23:37.869Z,28.60
2022-08-03T14:26:10.518Z,28.80
2022-08-03T14:28:40.062Z,28.70
2022-08-03T14:31:15.244Z,29.20
2022-08-03T14:33:55.137Z,29.20
2022-08-03T14:36:22.432Z,29.30
2022-08-03T14:38:49.857Z,28.70
2022-08-03T14:41:20.029Z,29.50
2022-08-03T14:44:01.405Z,28.80
2022-08-03T14:46:31.094Z,28.50
2022-08-03T14:50:33.159Z,28.80
2022-08-03T14:51:51.603Z,28.70
2022-08-03T14:54:22.428Z,28.50
2022-08-03T14:56:49.759Z,28.80
2022-08-03T14:59:17.079Z,29.20
2022-08-03T15:02:03.313Z,29.50
2022-08-03T15:04:31.983Z,29.80
2022-08-03T15:06:59.309Z,29.80
2022-08-03T15:09:28.624Z,29.20
2022-08-03T15:11:55.954Z,28.70
2022-08-03T15:14:32.474Z,29.00
2022-08-03T15:17:02.294Z,29.20
2022-08-03T15:20:05.565Z,28.70
2022-08-03T15:22:20.536Z,28.60
2022-08-03T15:24:52.581Z,28.80
2022-08-03T15:27:20.125Z,28.70
2022-08-03T15:30:09.550Z,29.10
2022-08-03T15:32:35.275Z,28.90
2022-08-03T15:35:02.666Z,28.60
2022-08-03T15:37:29.980Z,28.20
2022-08-03T15:39:58.812Z,28.40
2022-08-03T15:42:30.737Z,28.70
2022-08-03T15:44:58.680Z,28.60
2022-08-03T15:47:26.963Z,28.80
2022-08-03T15:49:54.485Z,28.80
2022-08-03T15:52:21.981Z,28.60
2022-08-03T15:54:49.380Z,29.30
2022-08-03T15:57:16.684Z,29.00
2022-08-03T15:59:44.073Z,29.10
2022-08-03T16:02:11.529Z,29.00
2022-08-03T16:04:38.888Z,29.10
2022-08-03T16:07:06.404Z,29.30
2022-08-03T16:09:42.127Z,29.00
2022-08-03T16:12:15.849Z,29.50
2022-08-03T16:14:52.878Z,29.70
2022-08-03T16:17:22.560Z,29.00
2022-08-03T16:19:54.106Z,29.20
2022-08-03T16:22:24.462Z,28.80
2022-08-03T16:24:55.642Z,29.00
2022-08-03T16:28:00.360Z,29.20
2022-08-03T16:30:16.714Z,29.00
2022-08-03T16:32:47.449Z,29.00
2022-08-03T16:35:19.230Z,29.30
2022-08-03T16:37:50.679Z,29.40
2022-08-03T16:40:25.148Z,29.30
2022-08-03T16:42:53.439Z,29.50
2022-08-03T16:45:20.769Z,29.20
2022-08-03T16:47:48.297Z,29.40
2022-08-03T16:50:30.489Z,29.30
2022-08-03T16:52:57.904Z,29.60
2022-08-03T16:55:48.750Z,29.60
2022-08-03T16:58:15.091Z,29.60
2022-08-03T17:00:43.107Z,29.80
2022-08-03T17:03:18.765Z,30.10
2022-08-03T17:05:50.183Z,30.00
2022-08-03T17:08:26.347Z,29.70
2022-08-03T17:10:56.221Z,29.90
2022-08-03T17:13:38.902Z,30.00
2022-08-03T17:16:11.918Z,29.90
2022-08-03T17:18:57.519Z,30.00
2022-08-03T17:21:35.428Z,30.10
2022-08-03T17:24:45.050Z,30.70
2022-08-03T17:28:51.235Z,31.10
2022-08-03T17:30:19.093Z,30.30
2022-08-03T17:32:56.842Z,30.40
2022-08-03T17:35:34.592Z,30.70
2022-08-03T17:38:11.899Z,30.80
2022-08-03T17:40:43.079Z,31.20
2022-08-03T17:44:13.284Z,31.10
2022-08-03T17:46:07.216Z,31.40
2022-08-03T17:48:41.126Z,31.60
2022-08-03T17:51:31.398Z,31.50
2022-08-03T17:55:57.370Z,31.50
2022-08-03T17:58:08.293Z,31.50
2022-08-03T18:00:59.681Z,32.00
2022-08-03T18:03:58.405Z,31.80
2022-08-03T18:06:36.364Z,32.00
2022-08-03T18:10:02.572Z,31.90
2022-08-03T18:12:05.173Z,31.90
2022-08-03T18:14:57.671Z,32.20
2022-08-03T18:18:01.833Z,32.40
2022-08-03T18:20:32.145Z,31.70
2022-08-03T18:23:07.009Z,32.20
2022-08-03T18:25:42.903Z,32.50
2022-08-03T18:28:14.521Z,32.40
2022-08-03T18:30:53.080Z,32.10
2022-08-03T18:34:16.918Z,32.40
2022-08-03T18:36:17.980Z,32.50
2022-08-03T18:38:49.132Z,33.30
2022-08-03T18:41:21.963Z,33.50
2022-08-03T18:44:08.221Z,33.70
2022-08-03T18:51:09.753Z,34.00
2022-08-03T18:54:06.480Z,34.40
2022-08-03T18:56:54.441Z,34.40
2022-08-03T18:59:52.841Z,35.00
2022-08-03T19:02:48.700Z,34.80
2022-08-03T19:05:24.671Z,35.30
2022-08-03T19:08:47.871Z,35.80
2022-08-03T19:12:13.189Z,36.40
2022-08-03T19:14:44.243Z,36.60
2022-08-03T19:17:14.081Z,36.90
2022-08-03T19:19:52.284Z,37.30
2022-08-03T19:22:23.043Z,37.50
2022-08-03T19:24:52.876Z,38.00
2022-08-03T19:27:27.017Z,38.00
2022-08-03T19:30:03.036Z,38.20
2022-08-03T19:32:35.158Z,38.10
2022-08-03T19:35:10.109Z,38.40
2022-08-03T19:37:46.540Z,38.60
2022-08-03T19:40:13.880Z,39.00
2022-08-03T19:42:46.835Z,39.00
2022-08-03T19:46:04.863Z,39.40
2022-08-03T19:48:26.060Z,39.80
2022-08-03T19:50:56.808Z,40.20
2022-08-03T19:53:35.362Z,40.50
2022-08-03T19:56:07.025Z,40.70
2022-08-03T19:58:35.417Z,41.10
2022-08-03T20:01:18.934Z,41.10
2022-08-03T20:03:49.752Z,41.40
2022-08-03T20:06:23.125Z,41.40
2022-08-03T20:08:51.833Z,41.40
2022-08-03T20:11:20.463Z,41.90
2022-08-03T20:13:59.130Z,42.00
2022-08-03T20:16:27.225Z,42.20
2022-08-03T20:18:54.588Z,42.50
2022-08-03T20:21:27.234Z,42.80
2022-08-03T20:24:23.080Z,42.70
2022-08-03T20:26:59.377Z,42.70
2022-08-03T20:30:07.250Z,42.60
2022-08-03T20:32:35.685Z,43.30
2022-08-03T20:35:03.105Z,42.70
2022-08-03T20:37:37.909Z,43.00
2022-08-03T20:40:07.212Z,43.50
2022-08-03T20:42:34.555Z,43.80
2022-08-03T20:45:05.395Z,43.60
2022-08-03T20:47:50.660Z,43.50
2022-08-03T20:50:18.441Z,43.40
2022-08-03T20:52:50.601Z,43.20
2022-08-03T20:55:39.106Z,42.40
2022-08-03T20:58:07.689Z,42.00
2022-08-03T21:00:35.045Z,41.50
2022-08-03T21:03:02.561Z,41.00
2022-08-03T21:05:51.208Z,43.50
2022-08-03T21:08:20.954Z,42.10
2022-08-03T21:10:49.366Z,41.60
2022-08-03T21:13:09.603Z,34.00
2022-08-03T21:13:45.195Z,42.00
2022-08-03T21:16:15.321Z,41.10
2022-08-03T21:18:57.924Z,41.00
2022-08-03T21:21:32.589Z,41.00
2022-08-03T21:24:03.528Z,40.90
2022-08-03T21:26:34.323Z,44.00
2022-08-03T21:29:02.453Z,40.80
2022-08-03T21:31:30.024Z,40.70
2022-08-03T21:34:05.274Z,40.40
2022-08-03T21:36:37.934Z,40.30
2022-08-03T21:39:10.069Z,40.20
2022-08-03T21:41:41.352Z,40.20
2022-08-03T21:44:09.162Z,40.30
2022-08-03T21:46:43.130Z,40.40
2022-08-03T21:50:04.710Z,40.60
2022-08-03T21:52:07.218Z,40.90
2022-08-03T21:54:58.272Z,40.80
2022-08-03T21:57:27.981Z,41.00
2022-08-03T22:00:14.973Z,42.40
2022-08-03T22:02:53.185Z,42.60
2022-08-03T22:05:42.361Z,41.90
2022-08-03T22:08:13.686Z,42.80
2022-08-03T22:10:45.011Z,43.00
2022-08-03T22:13:20.594Z,43.60
2022-08-03T22:16:05.438Z,43.70
2022-08-03T22:18:32.918Z,44.00
2022-08-03T22:21:02.168Z,44.40
2022-08-03T22:23:30.842Z,44.10
2022-08-03T22:26:03.436Z,44.10
2022-08-03T22:28:31.924Z,43.60
2022-08-03T22:31:00.105Z,43.40
2022-08-03T22:33:50.113Z,44.90
2022-08-03T22:36:22.814Z,44.40
2022-08-03T22:38:53.458Z,44.60
2022-08-03T22:41:21.568Z,44.30
2022-08-03T22:43:49.714Z,44.50
2022-08-03T22:46:23.440Z,44.80
2022-08-03T22:48:51.701Z,44.60
2022-08-03T22:51:21.010Z,44.70
2022-08-03T22:53:49.211Z,45.00
2022-08-03T22:56:16.547Z,45.40
2022-08-03T22:58:43.891Z,45.60
2022-08-03T23:01:18.524Z,45.20
2022-08-03T23:04:02.069Z,45.00
2022-08-03T23:06:40.485Z,44.50
2022-08-03T23:09:12.668Z,44.80
2022-08-03T23:11:45.960Z,44.20
2022-08-03T23:14:20.490Z,44.10
2022-08-03T23:16:50.280Z,44.30
2022-08-03T23:19:25.045Z,44.50
2022-08-03T23:22:03.134Z,44.40
2022-08-03T23:24:38.919Z,44.50
2022-08-03T23:27:09.161Z,44.80
2022-08-03T23:29:42.200Z,44.30
2022-08-03T23:32:12.853Z,44.50
2022-08-03T23:35:00.617Z,44.30
2022-08-03T23:37:28.239Z,44.80
2022-08-03T23:39:56.993Z,44.70
2022-08-03T23:42:25.436Z,44.90
2022-08-03T23:45:05.394Z,45.10
2022-08-03T23:47:46.413Z,45.40
2022-08-03T23:50:15.448Z,45.60
2022-08-03T23:53:11.717Z,45.40
2022-08-03T23:56:11.938Z,45.40
2022-08-03T23:59:14.075Z,45.40
